createdAt,value
2018-08-09T00:02:20.701Z,3.47
2018-08-09T00:04:52.214Z,3.77
2018-08-09T00:07:23.751Z,4.50
2018-08-09T00:09:55.223Z,5.25
2018-08-09T00:12:26.726Z,4.10
2018-08-09T00:14:57.869Z,3.75
2018-08-09T00:19:59.692Z,3.70
2018-08-09T00:22:30.885Z,3.95
2018-08-09T00:27:33.308Z,5.37
2018-08-09T00:30:06.902Z,3.47
2018-08-09T00:32:38.462Z,4.10
2018-08-09T00:35:10.212Z,4.85
2018-08-09T00:38:05.564Z,3.60
2018-08-09T00:40:36.841Z,3.33
2018-08-09T00:45:39.214Z,3.45
2018-08-09T00:48:10.669Z,5.58
2018-08-09T00:50:41.828Z,4.05
2018-08-09T00:55:43.826Z,5.28
2018-08-09T01:00:46.225Z,3.33
2018-08-09T01:03:17.651Z,4.00
2018-08-09T01:05:49.221Z,4.08
2018-08-09T01:08:20.426Z,3.58
2018-08-09T01:10:51.757Z,3.87
2018-08-09T01:13:23.281Z,3.42
2018-08-09T01:15:54.713Z,3.30
2018-08-09T01:18:26.427Z,4.37
2018-08-09T01:20:57.792Z,3.25
2018-08-09T01:23:28.887Z,3.60
2018-08-09T01:28:30.886Z,3.50
2018-08-09T01:33:33.530Z,3.22
2018-08-09T01:36:04.911Z,3.25
2018-08-09T01:38:36.432Z,3.60
2018-08-09T01:41:07.716Z,3.00
2018-08-09T01:44:05.428Z,3.50
2018-08-09T01:46:36.780Z,3.42
2018-08-09T01:49:08.359Z,3.20
2018-08-09T01:51:39.737Z,3.77
2018-08-09T01:54:11.208Z,3.80
2018-08-09T01:56:42.748Z,3.58
2018-08-09T01:59:13.659Z,3.87
2018-08-09T02:01:44.983Z,3.30
2018-08-09T02:04:16.583Z,3.35
2018-08-09T02:06:48.014Z,3.15
2018-08-09T02:09:24.550Z,3.45
2018-08-09T02:11:55.867Z,3.10
2018-08-09T02:16:57.834Z,3.55
2018-08-09T02:21:59.988Z,3.50
2018-08-09T02:24:31.872Z,3.62
2018-08-09T02:29:33.678Z,3.00
2018-08-09T02:32:05.350Z,3.10
2018-08-09T02:34:36.732Z,3.83
2018-08-09T02:37:08.602Z,3.27
2018-08-09T02:39:40.907Z,3.83
2018-08-09T02:42:12.225Z,3.20
2018-08-09T02:44:43.698Z,3.30
2018-08-09T02:47:14.862Z,3.45
2018-08-09T02:52:16.768Z,3.08
2018-08-09T02:54:48.381Z,3.72
2018-08-09T02:57:19.810Z,4.28
2018-08-09T02:59:51.310Z,3.00
2018-08-09T03:02:22.768Z,3.87
2018-08-09T03:04:54.202Z,3.55
2018-08-09T03:07:25.693Z,3.58
2018-08-09T03:09:57.200Z,3.47
2018-08-09T03:12:28.714Z,2.90
2018-08-09T03:15:00.197Z,3.10
2018-08-09T03:17:32.014Z,3.67
2018-08-09T03:20:03.663Z,3.35
2018-08-09T03:22:35.222Z,3.52
2018-08-09T03:25:06.676Z,3.55
2018-08-09T03:27:38.181Z,4.65
2018-08-09T03:30:09.788Z,3.22
2018-08-09T03:32:41.311Z,3.90
2018-08-09T03:35:12.699Z,3.17
2018-08-09T03:37:44.211Z,3.20
2018-08-09T03:40:15.724Z,3.08
2018-08-09T03:42:47.223Z,2.75
2018-08-09T03:45:18.610Z,3.45
2018-08-09T03:47:49.942Z,3.65
2018-08-09T03:50:21.365Z,3.72
2018-08-09T03:52:52.792Z,3.77
2018-08-09T03:55:24.332Z,6.10
2018-08-09T03:57:55.816Z,4.22
2018-08-09T04:00:27.789Z,5.30
2018-08-09T04:02:59.232Z,6.55
2018-08-09T04:05:30.770Z,5.78
2018-08-09T04:08:03.216Z,5.45
2018-08-09T04:11:38.778Z,7.55
2018-08-09T04:14:10.766Z,8.33
2018-08-09T04:16:42.475Z,7.30
2018-08-09T04:19:13.823Z,6.97
2018-08-09T04:24:15.911Z,9.50
2018-08-09T04:26:47.317Z,8.70
2018-08-09T04:29:18.706Z,6.60
2018-08-09T04:31:50.200Z,8.75
2018-08-09T04:34:21.950Z,7.33
2018-08-09T04:36:54.202Z,7.78
2018-08-09T04:39:25.732Z,7.70
2018-08-09T04:42:02.212Z,8.25
2018-08-09T04:44:33.707Z,8.40
2018-08-09T04:47:05.328Z,7.33
2018-08-09T04:49:36.771Z,9.58
2018-08-09T04:52:08.538Z,9.48
2018-08-09T04:54:39.980Z,7.33
2018-08-09T04:57:11.358Z,9.78
2018-08-09T04:59:42.862Z,8.30
2018-08-09T05:04:44.881Z,7.35
2018-08-09T05:09:47.211Z,7.65
2018-08-09T05:12:18.786Z,9.03
2018-08-09T05:15:02.981Z,11.00
2018-08-09T05:17:34.717Z,8.23
2018-08-09T05:20:07.373Z,9.05
2018-08-09T05:22:38.737Z,6.90
2018-08-09T05:28:08.788Z,8.13
2018-08-09T05:30:39.807Z,7.35
2018-08-09T05:33:10.909Z,9.70
2018-08-09T05:35:42.229Z,8.70
2018-08-09T05:38:13.596Z,8.18
2018-08-09T05:43:31.483Z,9.85
2018-08-09T05:46:02.626Z,9.23
2018-08-09T05:48:33.761Z,8.65
2018-08-09T05:51:04.810Z,8.05
2018-08-09T05:53:35.807Z,8.73
2018-08-09T05:56:07.380Z,7.80
2018-08-09T06:01:20.766Z,9.55
2018-08-09T06:03:52.401Z,9.08
2018-08-09T06:09:12.713Z,10.88
2018-08-09T06:11:43.887Z,8.75
2018-08-09T06:16:45.590Z,8.35
2018-08-09T06:19:16.723Z,7.78
2018-08-09T06:27:39.711Z,8.03
2018-08-09T06:30:12.483Z,11.28
2018-08-09T06:32:43.745Z,12.20
2018-08-09T06:35:25.786Z,9.70
2018-08-09T06:37:56.990Z,9.65
2018-08-09T06:40:28.245Z,8.38
2018-08-09T06:43:00.800Z,8.70
2018-08-09T06:45:35.546Z,10.40
2018-08-09T06:48:07.560Z,9.15
2018-08-09T06:50:38.699Z,11.03
2018-08-09T06:53:09.721Z,12.00
2018-08-09T06:55:40.818Z,10.25
2018-08-09T06:58:12.374Z,11.50
2018-08-09T07:00:43.770Z,11.60
2018-08-09T07:03:15.370Z,10.08
2018-08-09T07:05:46.771Z,9.60
2018-08-09T07:08:17.892Z,11.93
2018-08-09T07:13:19.821Z,10.55
2018-08-09T07:18:22.186Z,9.18
2018-08-09T07:20:53.708Z,7.85
2018-08-09T07:23:24.983Z,10.80
2018-08-09T07:25:56.529Z,10.95
2018-08-09T07:28:27.890Z,10.15
2018-08-09T07:30:59.328Z,11.57
2018-08-09T07:33:30.654Z,12.68
2018-08-09T07:36:02.330Z,9.95
2018-08-09T07:38:33.874Z,9.23
2018-08-09T07:43:36.187Z,10.35
2018-08-09T07:46:07.731Z,8.70
2018-08-09T07:48:39.684Z,10.93
2018-08-09T07:51:10.733Z,7.83
2018-08-09T07:53:42.356Z,9.75
2018-08-09T07:56:13.811Z,9.48
2018-08-09T08:01:16.062Z,12.47
2018-08-09T08:03:47.670Z,7.53
2018-08-09T08:06:18.964Z,9.73
2018-08-09T08:08:50.732Z,11.48
2018-08-09T08:11:21.992Z,8.13
2018-08-09T08:13:53.627Z,14.40
2018-08-09T08:16:25.208Z,6.67
2018-08-09T08:18:57.294Z,15.03
2018-08-09T08:21:28.847Z,12.75
2018-08-09T08:26:31.008Z,8.40
2018-08-09T08:29:02.574Z,8.23
2018-08-09T08:31:34.219Z,10.68
2018-08-09T08:34:05.692Z,6.83
2018-08-09T08:36:37.731Z,6.70
2018-08-09T08:39:11.661Z,16.40
2018-08-09T08:41:43.258Z,6.20
2018-08-09T08:44:14.740Z,7.25
2018-08-09T08:46:46.298Z,10.30
2018-08-09T08:49:17.760Z,11.20
2018-08-09T08:51:49.300Z,7.80
2018-08-09T08:54:20.656Z,5.97
2018-08-09T08:56:58.832Z,8.10
2018-08-09T09:02:00.968Z,9.08
2018-08-09T09:04:32.551Z,6.20
2018-08-09T09:07:04.041Z,5.92
2018-08-09T09:09:35.718Z,6.58
2018-08-09T09:12:07.506Z,6.10
2018-08-09T09:14:39.198Z,5.50
2018-08-09T09:17:10.731Z,9.88
2018-08-09T09:19:42.447Z,6.37
2018-08-09T09:22:13.822Z,6.62
2018-08-09T09:27:15.825Z,6.75
2018-08-09T09:32:18.213Z,5.80
2018-08-09T09:34:49.876Z,8.03
2018-08-09T09:39:52.182Z,5.72
2018-08-09T09:42:23.592Z,6.12
2018-08-09T09:44:55.151Z,5.95
2018-08-09T09:47:26.686Z,6.12
2018-08-09T09:49:58.460Z,5.97
2018-08-09T09:52:29.980Z,6.00
2018-08-09T09:55:01.620Z,6.72
2018-08-09T09:57:33.184Z,7.83
2018-08-09T10:00:04.706Z,7.20
2018-08-09T10:02:36.295Z,5.83
2018-08-09T10:05:08.202Z,6.03
2018-08-09T10:07:39.723Z,6.20
2018-08-09T10:10:12.298Z,6.50
2018-08-09T10:12:44.200Z,5.60
2018-08-09T10:15:15.647Z,10.48
2018-08-09T10:17:46.994Z,6.37
2018-08-09T10:20:18.898Z,9.83
2018-08-09T10:25:21.203Z,6.80
2018-08-09T10:27:52.655Z,6.33
2018-08-09T10:30:24.204Z,6.10
2018-08-09T10:32:55.741Z,6.20
2018-08-09T10:35:27.698Z,6.08
2018-08-09T10:37:59.188Z,6.05
2018-08-09T10:40:30.780Z,6.03
2018-08-09T10:43:02.035Z,5.50
2018-08-09T10:45:33.337Z,8.00
2018-08-09T10:48:04.757Z,6.20
2018-08-09T10:50:36.304Z,5.92
2018-08-09T10:53:07.892Z,6.08
2018-08-09T10:58:10.626Z,10.25
2018-08-09T11:00:42.211Z,6.17
2018-08-09T11:03:13.712Z,6.20
2018-08-09T11:05:45.438Z,6.50
2018-08-09T11:08:16.792Z,7.83
2018-08-09T11:10:48.696Z,6.20
2018-08-09T11:13:20.363Z,8.05
2018-08-09T11:15:52.004Z,5.87
2018-08-09T11:18:23.620Z,6.53
2018-08-09T11:20:55.215Z,5.83
2018-08-09T11:23:26.787Z,6.47
2018-08-09T11:25:58.699Z,9.33
2018-08-09T11:28:30.358Z,6.25
2018-08-09T11:31:01.984Z,6.35
2018-08-09T11:33:34.409Z,9.68
2018-08-09T11:36:05.753Z,8.93
2018-08-09T11:38:37.908Z,7.62
2018-08-09T11:41:09.662Z,7.17
2018-08-09T11:43:41.195Z,6.00
2018-08-09T11:46:12.766Z,6.28
2018-08-09T11:48:44.405Z,6.40
2018-08-09T11:51:15.752Z,7.72
2018-08-09T11:53:47.348Z,7.83
2018-08-09T11:56:18.791Z,5.80
2018-08-09T11:58:50.303Z,8.70
2018-08-09T12:01:21.835Z,9.98
2018-08-09T12:06:23.974Z,5.92
2018-08-09T12:08:55.544Z,7.72
2018-08-09T12:11:26.868Z,6.70
2018-08-09T12:16:29.462Z,5.47
2018-08-09T12:19:00.868Z,6.20
2018-08-09T12:24:03.039Z,5.67
2018-08-09T12:26:34.759Z,5.65
2018-08-09T12:29:06.706Z,8.08
2018-08-09T12:31:38.989Z,5.72
2018-08-09T12:34:10.522Z,6.22
2018-08-09T12:36:42.222Z,5.35
2018-08-09T12:39:14.483Z,5.85
2018-08-09T12:41:47.065Z,5.60
2018-08-09T12:44:18.680Z,5.70
2018-08-09T12:46:50.215Z,6.12
2018-08-09T12:49:21.736Z,6.30
2018-08-09T12:51:53.531Z,4.97
2018-08-09T12:54:24.806Z,5.45
2018-08-09T12:56:56.370Z,5.75
2018-08-09T12:59:27.876Z,5.55
2018-08-09T13:04:30.217Z,5.95
2018-08-09T13:07:01.732Z,5.75
2018-08-09T13:09:33.222Z,5.40
2018-08-09T13:12:04.773Z,10.63
2018-08-09T13:14:36.752Z,5.22
2018-08-09T13:17:09.380Z,6.00
2018-08-09T13:19:40.836Z,5.92
2018-08-09T13:24:43.007Z,5.50
2018-08-09T13:27:14.793Z,5.92
2018-08-09T13:29:46.359Z,5.60
2018-08-09T13:32:17.834Z,6.33
2018-08-09T13:37:20.200Z,5.70
2018-08-09T13:39:51.678Z,5.35
2018-08-09T13:42:23.182Z,5.47
2018-08-09T13:44:54.722Z,5.53
2018-08-09T13:47:26.245Z,5.53
2018-08-09T13:49:57.744Z,5.42
2018-08-09T13:52:29.218Z,5.20
2018-08-09T13:55:00.738Z,5.00
2018-08-09T13:57:32.302Z,5.42
2018-08-09T14:00:03.874Z,5.33
2018-08-09T14:05:07.440Z,5.67
2018-08-09T14:07:39.705Z,5.30
2018-08-09T14:10:11.998Z,5.83
2018-08-09T14:12:43.836Z,5.10
2018-08-09T14:17:47.540Z,9.03
2018-08-09T14:20:19.729Z,5.17
2018-08-09T14:22:51.312Z,5.28
2018-08-09T14:25:22.764Z,6.17
2018-08-09T14:27:54.715Z,5.15
2018-08-09T14:30:26.005Z,5.12
2018-08-09T14:32:57.583Z,5.50
2018-08-09T14:35:29.297Z,5.37
2018-08-09T14:38:00.872Z,5.08
2018-08-09T14:43:03.510Z,4.97
2018-08-09T14:45:35.205Z,5.75
2018-08-09T14:48:06.812Z,5.72
2018-08-09T14:53:09.328Z,5.30
2018-08-09T14:55:40.842Z,4.67
2018-08-09T15:00:42.872Z,5.10
2018-08-09T15:05:45.001Z,5.28
2018-08-09T15:08:16.528Z,4.92
2018-08-09T15:10:47.860Z,6.17
2018-08-09T15:15:49.996Z,4.83
2018-08-09T15:18:21.700Z,4.85
2018-08-09T15:20:52.907Z,4.80
2018-08-09T15:23:24.412Z,5.00
2018-08-09T15:25:55.747Z,5.00
2018-08-09T15:28:27.384Z,4.72
2018-08-09T15:30:58.850Z,4.97
2018-08-09T15:36:01.207Z,4.70
2018-08-09T15:38:32.721Z,4.65
2018-08-09T15:41:04.198Z,5.65
2018-08-09T15:43:35.694Z,5.03
2018-08-09T15:46:07.732Z,4.75
2018-08-09T15:48:39.773Z,4.55
2018-08-09T15:51:12.433Z,7.75
2018-08-09T15:53:43.907Z,4.92
2018-08-09T15:58:46.574Z,5.65
2018-08-09T16:01:18.204Z,4.75
2018-08-09T16:03:49.663Z,4.97
2018-08-09T16:06:21.207Z,5.00
2018-08-09T16:08:52.666Z,4.78
2018-08-09T16:11:24.328Z,4.75
2018-08-09T16:13:55.813Z,4.60
2018-08-09T16:16:27.365Z,7.40
2018-08-09T16:18:58.901Z,4.75
2018-08-09T16:24:01.019Z,4.40
2018-08-09T16:26:32.651Z,4.58
2018-08-09T16:29:04.733Z,4.78
2018-08-09T16:31:36.394Z,5.22
2018-08-09T16:34:07.799Z,5.28
2018-08-09T16:36:39.620Z,4.53
2018-08-09T16:46:34.483Z,4.55
2018-08-09T16:49:06.022Z,4.70
2018-08-09T16:54:29.705Z,4.60
2018-08-09T16:57:01.287Z,4.72
2018-08-09T16:59:33.421Z,4.25
2018-08-09T17:02:04.846Z,4.65
2018-08-09T17:07:06.898Z,5.35
2018-08-09T17:12:10.415Z,4.58
2018-08-09T17:14:41.749Z,4.80
2018-08-09T17:17:13.391Z,4.40
2018-08-09T17:19:44.812Z,4.50
2018-08-09T17:22:16.363Z,4.65
2018-08-09T17:24:48.793Z,4.62
2018-08-09T17:27:20.342Z,5.05
2018-08-09T17:29:51.807Z,4.87
2018-08-09T17:32:23.234Z,4.40
2018-08-09T17:35:04.804Z,4.65
2018-08-09T17:37:36.243Z,4.40
2018-08-09T17:40:11.954Z,6.50
2018-08-09T17:42:43.584Z,4.70
2018-08-09T17:45:15.743Z,5.87
2018-08-09T17:50:35.333Z,4.80
2018-08-09T17:53:08.578Z,5.80
2018-08-09T17:55:39.999Z,5.67
2018-08-09T17:58:11.655Z,5.28
2018-08-09T18:00:42.989Z,6.97
2018-08-09T18:03:14.519Z,5.70
2018-08-09T18:05:46.219Z,6.03
2018-08-09T18:08:17.698Z,9.15
2018-08-09T18:10:49.194Z,6.55
2018-08-09T18:13:20.645Z,7.55
2018-08-09T18:15:52.199Z,8.75
2018-08-09T18:18:23.656Z,5.90
2018-08-09T18:20:55.211Z,5.83
2018-08-09T18:23:26.700Z,6.33
2018-08-09T18:25:58.217Z,7.33
2018-08-09T18:28:29.731Z,6.35
2018-08-09T18:31:01.228Z,6.75
2018-08-09T18:33:32.680Z,8.58
2018-08-09T18:36:04.321Z,8.55
2018-08-09T18:38:35.740Z,5.78
2018-08-09T18:41:07.201Z,5.42
2018-08-09T18:43:38.730Z,5.87
2018-08-09T18:46:10.637Z,6.55
2018-08-09T18:48:42.064Z,6.00
2018-08-09T18:51:13.740Z,6.05
2018-08-09T18:53:45.372Z,6.83
2018-08-09T18:56:16.780Z,6.67
2018-08-09T18:58:48.230Z,7.80
2018-08-09T19:01:19.717Z,6.40
2018-08-09T19:03:51.319Z,5.20
2018-08-09T19:06:22.791Z,5.42
2018-08-09T19:08:54.302Z,7.20
2018-08-09T19:11:25.736Z,7.75
2018-08-09T19:13:57.220Z,7.75
2018-08-09T19:16:28.692Z,5.12
2018-08-09T19:19:00.043Z,5.17
2018-08-09T19:21:31.655Z,4.92
2018-08-09T19:24:03.430Z,5.15
2018-08-09T19:26:34.839Z,6.40
2018-08-09T19:31:36.872Z,6.30
2018-08-09T19:36:39.202Z,4.92
2018-08-09T19:39:14.659Z,7.42
2018-08-09T19:41:46.457Z,7.47
2018-08-09T19:44:17.927Z,5.37
2018-08-09T19:46:49.543Z,5.92
2018-08-09T19:49:20.996Z,7.12
2018-08-09T19:51:53.652Z,5.97
2018-08-09T19:54:25.973Z,6.40
2018-08-09T19:56:58.226Z,4.67
2018-08-09T20:05:40.711Z,5.17
2018-08-09T20:08:11.861Z,5.83
2018-08-09T20:10:42.877Z,4.97
2018-08-09T20:13:13.809Z,5.13
2018-08-09T20:15:44.836Z,5.47
2018-08-09T20:18:15.776Z,4.87
2018-08-09T20:20:46.819Z,4.30
2018-08-09T20:23:17.946Z,4.67
2018-08-09T20:28:19.697Z,6.60
2018-08-09T20:30:50.798Z,4.57
2018-08-09T20:33:22.306Z,5.83
2018-08-09T20:35:54.232Z,4.53
2018-08-09T20:38:25.894Z,4.73
2018-08-09T20:43:28.205Z,4.87
2018-08-09T20:45:59.719Z,5.90
2018-08-09T20:48:31.640Z,6.37
2018-08-09T20:51:03.199Z,4.67
2018-08-09T20:53:34.728Z,4.53
2018-08-09T20:56:06.505Z,5.40
2018-08-09T20:58:38.839Z,5.13
2018-08-09T21:01:10.298Z,4.37
2018-08-09T21:03:41.860Z,5.10
2018-08-09T21:06:13.434Z,6.07
2018-08-09T21:08:45.009Z,4.37
2018-08-09T21:11:16.578Z,5.37
2018-08-09T21:13:47.918Z,4.37
2018-08-09T21:18:50.553Z,4.43
2018-08-09T21:21:22.210Z,3.97
2018-08-09T21:23:53.752Z,6.57
2018-08-09T21:26:25.239Z,6.17
2018-08-09T21:28:57.611Z,4.30
2018-08-09T21:31:29.240Z,4.53
2018-08-09T21:34:01.222Z,4.30
2018-08-09T21:36:32.770Z,4.20
2018-08-09T21:44:15.867Z,5.90
2018-08-09T21:46:46.806Z,4.23
2018-08-09T21:49:17.879Z,5.90
2018-08-09T21:52:01.208Z,5.40
2018-08-09T21:54:33.475Z,5.07
2018-08-09T21:57:04.717Z,4.20
2018-08-09T21:59:36.274Z,3.70
2018-08-09T22:05:06.549Z,3.67
2018-08-09T22:07:43.976Z,4.50
2018-08-09T22:10:20.195Z,3.90
2018-08-09T22:12:56.600Z,3.77
2018-08-09T22:15:32.523Z,3.80
2018-08-09T22:18:08.556Z,3.73
2018-08-09T22:20:44.740Z,3.90
2018-08-09T22:23:15.859Z,3.90
2018-08-09T22:25:46.734Z,4.23
2018-08-09T22:28:17.828Z,5.17
2018-08-09T22:30:48.818Z,4.43
2018-08-09T22:33:19.639Z,3.83
2018-08-09T22:35:50.670Z,4.77
2018-08-09T22:38:21.736Z,3.57
2018-08-09T22:40:53.194Z,4.27
2018-08-09T22:43:24.696Z,3.73
2018-08-09T22:45:56.201Z,4.27
2018-08-09T22:48:27.764Z,5.00
2018-08-09T22:50:59.203Z,3.67
2018-08-09T22:53:30.692Z,3.97
2018-08-09T22:56:02.235Z,3.40
2018-08-09T22:58:34.056Z,3.87
2018-08-09T23:01:05.759Z,3.80
2018-08-09T23:03:37.401Z,4.80
2018-08-09T23:06:09.515Z,5.50
2018-08-09T23:08:40.908Z,3.60
2018-08-09T23:13:42.999Z,4.63
2018-08-09T23:18:45.376Z,3.73
2018-08-09T23:21:16.785Z,3.90
2018-08-09T23:23:48.301Z,3.60
2018-08-09T23:26:19.799Z,3.80
2018-08-09T23:41:08.630Z,3.30
2018-08-09T23:43:39.809Z,4.00
2018-08-09T23:46:10.774Z,3.40
2018-08-09T23:48:41.544Z,4.73
2018-08-09T23:51:12.490Z,3.33
2018-08-09T23:53:43.612Z,3.03
2018-08-09T23:56:14.723Z,3.17
2018-08-09T23:58:45.841Z,3.33
